Time;durP1;ratioP1;P1;durP2;ratioP2;P2;SDS_P1;SDS_P2;PMS_P1;PMS_P2;Temp;Humidity;BMP_temperature;BMP_pressure;BME280_temperature;BME280_humidity;BME280_pressure;Samples;Min_cycle;Max_cycle;Signal;HPM_P1;HPM_P2
2023/10/09 00:01:13;;;;;;;10.43;7.87;;;;;;;;;;5014624;28;20210;-80
2023/10/09 00:03:41;;;;;;;9.67;7.10;;;;;;;;;;5013517;28;20203;-80
2023/10/09 00:06:07;;;;;;;12.03;6.53;;;;;;;;;;5012008;28;21782;-78
2023/10/09 00:08:37;;;;;;;12.97;7.50;;;;;;;;;;4993878;28;20310;-79
2023/10/09 00:13:57;;;;;;;10.10;6.70;;;;;;;;;;5012406;28;20220;-78
2023/10/09 00:16:34;;;;;;;15.33;8.97;;;;;;;;;;4992565;28;20566;-79
2023/10/09 00:19:13;;;;;;;22.60;13.30;;;;;;;;;;5012476;28;20212;-79
2023/10/09 00:21:43;;;;;;;21.20;12.70;;;;;;;;;;5007458;28;20662;-79
2023/10/09 00:24:23;;;;;;;17.27;11.83;;;;;;;;;;5001916;28;20207;-78
2023/10/09 00:26:55;;;;;;;20.43;11.70;;;;;;;;;;5010482;28;20690;-79
2023/10/09 00:29:21;;;;;;;15.33;9.93;;;;;;;;;;4992874;28;20183;-79
2023/10/09 00:32:05;;;;;;;19.30;12.27;;;;;;;;;;4991859;28;20333;-78
2023/10/09 00:34:39;;;;;;;15.50;10.73;;;;;;;;;;4990645;28;20328;-79
2023/10/09 00:37:25;;;;;;;19.60;11.37;;;;;;;;;;4986521;28;20192;-78
2023/10/09 00:39:58;;;;;;;15.10;9.90;;;;;;;;;;4989645;28;20222;-78
2023/10/09 00:42:36;;;;;;;11.37;8.33;;;;;;;;;;5006334;28;20187;-79
2023/10/09 00:45:08;;;;;;;20.30;10.93;;;;;;;;;;4987844;28;20221;-78
2023/10/09 00:47:35;;;;;;;19.17;12.17;;;;;;;;;;4991414;28;20233;-79
2023/10/09 00:53:30;;;;;;;14.60;7.70;;;;;;;;;;4990236;28;21458;-78
2023/10/09 00:55:45;;;;;;;10.97;7.03;;;;;;;;;;4987876;28;20287;-79
2023/10/09 00:58:23;;;;;;;11.07;6.57;;;;;;;;;;5009264;28;20187;-79
2023/10/09 01:00:52;;;;;;;10.07;6.30;;;;;;;;;;4992239;28;20215;-78
2023/10/09 01:03:19;;;;;;;8.87;6.80;;;;;;;;;;4993937;28;20260;-79
2023/10/09 01:05:57;;;;;;;9.93;6.10;;;;;;;;;;5012785;28;20204;-78
2023/10/09 01:08:32;;;;;;;10.40;6.10;;;;;;;;;;4977203;28;20647;-78
2023/10/09 01:11:08;;;;;;;11.80;7.23;;;;;;;;;;5004711;28;20206;-78
2023/10/09 01:13:52;;;;;;;13.70;8.47;;;;;;;;;;4977517;28;20280;-79
2023/10/09 01:16:22;;;;;;;21.67;11.73;;;;;;;;;;4984346;28;20257;-78
2023/10/09 01:18:50;;;;;;;16.77;8.83;;;;;;;;;;4998150;28;20179;-78
2023/10/09 01:21:24;;;;;;;14.13;8.07;;;;;;;;;;4981576;28;20620;-78
2023/10/09 01:24:08;;;;;;;14.10;9.00;;;;;;;;;;4998513;28;20248;-79
2023/10/09 01:26:47;;;;;;;14.67;8.33;;;;;;;;;;4992481;28;20191;-78
2023/10/09 01:29:27;;;;;;;11.77;7.37;;;;;;;;;;4989670;28;20683;-79
2023/10/09 01:32:00;;;;;;;14.70;7.67;;;;;;;;;;5005994;28;20257;-79
2023/10/09 01:37:23;;;;;;;12.27;6.40;;;;;;;;;;4992253;28;20222;-79
2023/10/09 01:39:50;;;;;;;10.03;6.33;;;;;;;;;;4985759;28;20214;-79
2023/10/09 01:42:44;;;;;;;9.53;6.00;;;;;;;;;;4990733;28;20207;-79
2023/10/09 01:45:11;;;;;;;16.43;7.33;;;;;;;;;;4981094;28;20200;-79
2023/10/09 01:47:38;;;;;;;14.00;6.93;;;;;;;;;;5014066;28;20667;-79
2023/10/09 01:50:18;;;;;;;10.50;6.43;;;;;;;;;;5026777;28;20594;-79
2023/10/09 01:52:44;;;;;;;11.63;6.97;;;;;;;;;;4990070;28;20197;-79
2023/10/09 01:55:15;;;;;;;13.20;7.50;;;;;;;;;;5025770;28;20693;-79
2023/10/09 01:57:44;;;;;;;12.63;6.20;;;;;;;;;;4997535;28;20240;-79
2023/10/09 02:00:24;;;;;;;11.30;6.67;;;;;;;;;;4985490;28;20234;-79
2023/10/09 02:02:50;;;;;;;12.73;7.27;;;;;;;;;;5018594;28;20197;-79
2023/10/09 02:07:52;;;;;;;11.83;6.77;;;;;;;;;;5011068;28;20190;-79
2023/10/09 02:12:57;;;;;;;10.87;5.87;;;;;;;;;;4994710;28;20265;-79
2023/10/09 02:15:40;;;;;;;9.53;6.07;;;;;;;;;;5011180;28;20611;-79
2023/10/09 02:26:07;;;;;;;25.47;11.70;;;;;;;;;;5006159;28;20639;-79
2023/10/09 02:28:34;;;;;;;19.27;9.37;;;;;;;;;;5017326;28;20183;-79
2023/10/09 02:31:09;;;;;;;12.20;7.07;;;;;;;;;;4978603;28;20213;-79
2023/10/09 02:33:36;;;;;;;14.17;6.53;;;;;;;;;;5024553;28;20186;-79
2023/10/09 02:36:05;;;;;;;9.27;5.83;;;;;;;;;;5022673;28;20191;-79
2023/10/09 02:38:35;;;;;;;8.70;5.87;;;;;;;;;;5002077;28;20357;-79
2023/10/09 02:43:44;;;;;;;12.13;6.07;;;;;;;;;;5000062;28;20202;-79
2023/10/09 02:46:17;;;;;;;12.57;6.53;;;;;;;;;;5000186;28;20190;-79
2023/10/09 02:48:53;;;;;;;13.30;6.30;;;;;;;;;;5001582;28;20186;-79
2023/10/09 02:53:57;;;;;;;11.47;5.63;;;;;;;;;;5003628;28;20191;-79
2023/10/09 02:56:43;;;;;;;9.13;5.57;;;;;;;;;;4992605;28;20198;-79
2023/10/09 02:59:09;;;;;;;9.30;5.70;;;;;;;;;;4989277;28;20233;-79
2023/10/09 03:01:37;;;;;;;12.10;6.40;;;;;;;;;;4990726;28;20225;-79
2023/10/09 03:04:05;;;;;;;13.30;6.40;;;;;;;;;;4992378;28;20183;-79
2023/10/09 03:06:33;;;;;;;11.17;5.40;;;;;;;;;;5008736;28;20179;-79
2023/10/09 03:09:00;;;;;;;11.37;6.13;;;;;;;;;;4987708;28;20186;-79
2023/10/09 03:11:26;;;;;;;10.13;5.60;;;;;;;;;;5003856;28;20211;-80
2023/10/09 03:13:54;;;;;;;12.83;5.87;;;;;;;;;;4988933;28;20195;-80
2023/10/09 03:16:21;;;;;;;11.20;5.80;;;;;;;;;;5004180;28;20184;-79
2023/10/09 03:18:52;;;;;;;11.67;5.47;;;;;;;;;;4990970;28;20640;-79
2023/10/09 03:21:21;;;;;;;13.03;5.57;;;;;;;;;;4998364;28;20223;-79
2023/10/09 03:23:49;;;;;;;12.63;6.13;;;;;;;;;;4982398;28;20182;-79
2023/10/09 03:26:20;;;;;;;13.10;6.47;;;;;;;;;;4989791;28;20214;-79
2023/10/09 03:28:46;;;;;;;12.63;6.40;;;;;;;;;;5014947;28;20190;-80
2023/10/09 03:31:13;;;;;;;16.27;6.30;;;;;;;;;;4993348;28;20257;-79
2023/10/09 03:33:42;;;;;;;10.50;5.63;;;;;;;;;;5007175;28;20191;-79
2023/10/09 03:36:11;;;;;;;11.50;6.23;;;;;;;;;;4972621;28;20183;-79
2023/10/09 03:38:38;;;;;;;14.23;7.27;;;;;;;;;;5013546;28;20277;-79
2023/10/09 03:41:09;;;;;;;11.43;5.80;;;;;;;;;;4986508;28;20221;-79
2023/10/09 03:43:41;;;;;;;12.20;6.20;;;;;;;;;;5002476;28;20196;-79
2023/10/09 03:46:22;;;;;;;12.23;5.83;;;;;;;;;;5003276;28;20212;-79
2023/10/09 03:48:48;;;;;;;12.80;6.07;;;;;;;;;;5006523;28;20552;-79
2023/10/09 03:51:21;;;;;;;13.67;5.47;;;;;;;;;;4986392;28;20203;-79
2023/10/09 03:53:52;;;;;;;13.43;5.40;;;;;;;;;;4990779;28;20190;-79
2023/10/09 03:56:21;;;;;;;11.83;5.10;;;;;;;;;;5007608;28;20248;-79
2023/10/09 03:58:50;;;;;;;17.00;6.23;;;;;;;;;;5013735;28;20187;-79
2023/10/09 04:01:24;;;;;;;14.07;5.60;;;;;;;;;;5002125;28;20212;-79
2023/10/09 04:04:00;;;;;;;14.57;6.10;;;;;;;;;;5009232;28;20244;-79
2023/10/09 04:06:33;;;;;;;10.10;5.83;;;;;;;;;;5013427;28;20184;-78
2023/10/09 04:09:39;;;;;;;13.97;5.80;;;;;;;;;;4991757;28;20185;-79
2023/10/09 04:14:48;;;;;;;9.70;4.67;;;;;;;;;;4990403;28;20856;-79
2023/10/09 04:22:50;;;;;;;13.97;5.20;;;;;;;;;;4993763;28;20678;-79
2023/10/09 04:25:25;;;;;;;10.63;5.00;;;;;;;;;;4990308;28;20192;-79
2023/10/09 04:28:08;;;;;;;12.43;4.93;;;;;;;;;;5012602;28;20682;-79
2023/10/09 04:30:40;;;;;;;9.00;4.67;;;;;;;;;;4994436;28;20698;-79
2023/10/09 04:33:27;;;;;;;10.77;5.10;;;;;;;;;;4994103;28;20573;-79
2023/10/09 04:36:15;;;;;;;10.80;5.07;;;;;;;;;;5010720;28;20245;-80
2023/10/09 04:38:38;;;;;;;12.40;5.30;;;;;;;;;;5008205;28;20180;-79
2023/10/09 04:41:09;;;;;;;12.80;4.70;;;;;;;;;;4973839;28;20225;-79
2023/10/09 04:43:35;;;;;;;10.63;4.97;;;;;;;;;;5006199;28;20210;-79
2023/10/09 04:46:12;;;;;;;9.23;4.90;;;;;;;;;;4962060;28;20190;-79
2023/10/09 04:48:38;;;;;;;11.50;5.00;;;;;;;;;;4980266;28;20227;-80
2023/10/09 04:51:20;;;;;;;15.43;5.63;;;;;;;;;;4996160;28;20324;-79
2023/10/09 04:53:50;;;;;;;14.03;6.10;;;;;;;;;;4992753;28;20344;-79
2023/10/09 04:56:16;;;;;;;15.63;6.00;;;;;;;;;;5007749;28;20187;-79
2023/10/09 04:58:44;;;;;;;10.07;4.80;;;;;;;;;;5010482;28;20199;-79
2023/10/09 05:01:16;;;;;;;13.73;5.20;;;;;;;;;;5013789;28;20214;-79
2023/10/09 05:03:42;;;;;;;11.33;4.93;;;;;;;;;;4991030;28;20627;-79
2023/10/09 05:06:32;;;;;;;9.50;4.83;;;;;;;;;;5007883;28;20187;-79
2023/10/09 05:09:07;;;;;;;10.20;5.33;;;;;;;;;;5002216;28;20217;-79
2023/10/09 05:11:52;;;;;;;8.63;5.20;;;;;;;;;;5019723;28;20221;-79
2023/10/09 05:14:38;;;;;;;11.13;5.30;;;;;;;;;;5017996;28;20178;-79
2023/10/09 05:17:09;;;;;;;13.57;5.47;;;;;;;;;;5021800;28;20226;-77
2023/10/09 05:22:38;;;;;;;12.43;5.95;;;;;;;;;;5012969;28;20411;-82
2023/10/09 05:25:15;;;;;;;9.07;5.17;;;;;;;;;;5010493;28;20552;-76
2023/10/09 05:27:50;;;;;;;10.00;5.17;;;;;;;;;;5014097;28;20208;-76
2023/10/09 05:30:26;;;;;;;14.53;5.00;;;;;;;;;;5020806;28;20243;-77
2023/10/09 05:32:58;;;;;;;10.40;6.00;;;;;;;;;;4993388;28;20273;-76
2023/10/09 05:35:39;;;;;;;12.40;6.10;;;;;;;;;;4978920;28;20205;-80
2023/10/09 05:38:15;;;;;;;12.53;5.70;;;;;;;;;;5021941;28;20190;-82
2023/10/09 05:40:43;;;;;;;10.97;5.73;;;;;;;;;;5023323;28;20697;-78
2023/10/09 05:44:44;;;;;;;14.27;6.23;;;;;;;;;;5015181;28;20187;-77
2023/10/09 05:46:07;;;;;;;12.27;5.80;;;;;;;;;;5024933;28;20216;-77
2023/10/09 05:48:54;;;;;;;10.07;5.60;;;;;;;;;;5014367;28;20183;-77
2023/10/09 05:51:41;;;;;;;14.77;5.80;;;;;;;;;;5001024;28;20207;-77
2023/10/09 05:54:11;;;;;;;10.93;5.13;;;;;;;;;;5003725;28;20194;-77
2023/10/09 05:58:42;;;;;;;9.13;5.13;;;;;;;;;;4999233;28;20189;-77
2023/10/09 06:04:55;;;;;;;9.83;5.77;;;;;;;;;;4999705;28;20182;-77
2023/10/09 06:07:40;;;;;;;10.60;5.70;;;;;;;;;;4980392;28;20183;-76
2023/10/09 06:10:37;;;;;;;13.17;5.07;;;;;;;;;;4988678;28;20215;-76
2023/10/09 06:13:03;;;;;;;14.33;5.87;;;;;;;;;;4998902;28;20538;-77
2023/10/09 06:15:51;;;;;;;10.50;5.63;;;;;;;;;;5002771;28;20184;-77
2023/10/09 06:18:32;;;;;;;9.37;5.37;;;;;;;;;;5005839;28;20190;-76
2023/10/09 06:21:09;;;;;;;11.53;5.57;;;;;;;;;;4998718;28;20877;-76
2023/10/09 06:26:24;;;;;;;11.57;6.17;;;;;;;;;;5001582;28;20568;-77
2023/10/09 06:29:13;;;;;;;10.20;5.90;;;;;;;;;;5002894;28;20175;-79
2023/10/09 06:34:32;;;;;;;9.07;5.43;;;;;;;;;;4996343;28;20245;-78
2023/10/09 06:37:03;;;;;;;13.03;5.30;;;;;;;;;;4998922;28;20190;-77
2023/10/09 06:47:41;;;;;;;9.90;5.07;;;;;;;;;;4988194;28;20241;-77
2023/10/09 06:55:48;;;;;;;9.67;5.23;;;;;;;;;;4996762;28;20687;-77
2023/10/09 06:58:22;;;;;;;10.97;5.07;;;;;;;;;;5015389;28;20190;-77
2023/10/09 07:03:19;;;;;;;11.60;5.03;;;;;;;;;;5012704;28;20186;-77
2023/10/09 07:06:04;;;;;;;8.47;4.47;;;;;;;;;;5017516;28;20402;-78
2023/10/09 07:08:37;;;;;;;13.03;5.30;;;;;;;;;;5014164;28;20533;-77
2023/10/09 07:11:57;;;;;;;12.47;5.27;;;;;;;;;;5014321;28;20240;-78
2023/10/09 07:17:21;;;;;;;8.10;4.93;;;;;;;;;;5015347;28;20189;-77
2023/10/09 07:25:13;;;;;;;16.27;5.37;;;;;;;;;;5014261;28;20190;-77
2023/10/09 07:27:48;;;;;;;12.60;5.70;;;;;;;;;;5018228;28;20170;-77
2023/10/09 07:33:06;;;;;;;15.40;5.57;;;;;;;;;;5021485;28;20189;-77
2023/10/09 07:38:23;;;;;;;13.23;4.83;;;;;;;;;;5004259;28;20198;-77
2023/10/09 07:40:56;;;;;;;14.13;6.10;;;;;;;;;;5020822;28;20210;-77
2023/10/09 07:43:39;;;;;;;11.03;5.53;;;;;;;;;;4998448;28;20194;-77
2023/10/09 07:48:52;;;;;;;12.27;5.63;;;;;;;;;;5022780;28;20191;-77
2023/10/09 07:51:31;;;;;;;17.20;5.67;;;;;;;;;;5020519;28;20207;-78
2023/10/09 07:54:08;;;;;;;13.20;5.00;;;;;;;;;;5017754;28;20220;-77
2023/10/09 07:56:41;;;;;;;12.80;6.00;;;;;;;;;;5015799;28;20191;-77
2023/10/09 07:59:11;;;;;;;19.43;5.57;;;;;;;;;;5016479;28;20252;-77
2023/10/09 08:02:02;;;;;;;12.27;5.40;;;;;;;;;;5012973;28;20216;-80
2023/10/09 08:04:39;;;;;;;15.73;5.50;;;;;;;;;;5006198;28;20254;-77
2023/10/09 08:07:09;;;;;;;11.63;5.13;;;;;;;;;;5011561;28;20249;-77
2023/10/09 08:09:48;;;;;;;14.20;5.37;;;;;;;;;;5019060;28;20675;-77
2023/10/09 08:13:49;;;;;;;12.10;5.47;;;;;;;;;;5018315;28;20276;-77
2023/10/09 08:18:09;;;;;;;16.00;5.53;;;;;;;;;;5013920;28;20206;-77
2023/10/09 08:23:52;;;;;;;12.97;5.53;;;;;;;;;;4936621;29;20820;-78
2023/10/09 08:26:29;;;;;;;16.17;5.33;;;;;;;;;;5008285;28;20211;-77
2023/10/09 08:29:15;;;;;;;16.47;5.37;;;;;;;;;;4999588;28;20175;-77
2023/10/09 08:31:45;;;;;;;14.33;5.60;;;;;;;;;;5016519;28;20269;-77
2023/10/09 08:34:27;;;;;;;15.73;5.40;;;;;;;;;;5016711;28;20187;-77
2023/10/09 08:36:53;;;;;;;15.07;5.17;;;;;;;;;;5001357;28;20655;-77
2023/10/09 08:39:27;;;;;;;15.90;5.47;;;;;;;;;;5018908;28;20699;-77
2023/10/09 08:41:57;;;;;;;16.43;5.83;;;;;;;;;;5002201;28;20202;-77
2023/10/09 08:44:31;;;;;;;18.57;5.40;;;;;;;;;;5020456;28;20198;-77
2023/10/09 08:46:58;;;;;;;16.20;5.73;;;;;;;;;;5019316;28;20546;-77
2023/10/09 08:49:26;;;;;;;11.97;5.40;;;;;;;;;;5003857;28;20182;-77
2023/10/09 08:51:52;;;;;;;12.57;4.77;;;;;;;;;;5019137;28;20202;-78
2023/10/09 08:54:19;;;;;;;13.80;4.80;;;;;;;;;;5017267;28;20183;-77
2023/10/09 08:56:49;;;;;;;12.77;4.40;;;;;;;;;;4999902;28;20191;-78
2023/10/09 08:59:19;;;;;;;13.53;5.17;;;;;;;;;;5013921;28;20667;-77
2023/10/09 09:01:49;;;;;;;16.20;5.43;;;;;;;;;;5019215;28;20213;-77
2023/10/09 09:04:35;;;;;;;14.50;5.30;;;;;;;;;;5017103;28;20175;-77
2023/10/09 09:07:02;;;;;;;12.17;5.03;;;;;;;;;;5011062;28;20678;-77
2023/10/09 09:09:30;;;;;;;13.67;4.90;;;;;;;;;;5014619;28;20190;-77
2023/10/09 09:11:59;;;;;;;12.50;5.77;;;;;;;;;;5016010;28;20210;-77
2023/10/09 09:14:39;;;;;;;21.03;5.23;;;;;;;;;;5014766;28;20253;-77
2023/10/09 09:17:10;;;;;;;14.73;4.80;;;;;;;;;;5015933;28;20273;-77
2023/10/09 09:19:38;;;;;;;14.37;4.90;;;;;;;;;;5012425;28;20266;-78
2023/10/09 09:22:14;;;;;;;17.67;5.37;;;;;;;;;;4991921;28;20210;-78
2023/10/09 09:24:46;;;;;;;16.43;5.40;;;;;;;;;;5013362;28;20182;-77
2023/10/09 09:27:12;;;;;;;12.27;5.03;;;;;;;;;;5011627;28;20179;-78
2023/10/09 09:29:40;;;;;;;12.47;5.03;;;;;;;;;;5001052;28;20194;-79
2023/10/09 09:32:23;;;;;;;15.87;5.47;;;;;;;;;;5006381;28;20251;-80
2023/10/09 09:34:57;;;;;;;13.87;4.70;;;;;;;;;;5004290;28;20182;-80
2023/10/09 09:37:28;;;;;;;14.13;4.93;;;;;;;;;;5006108;28;20270;-79
2023/10/09 09:40:02;;;;;;;19.03;5.20;;;;;;;;;;5009484;28;20218;-80
2023/10/09 09:42:31;;;;;;;11.10;4.63;;;;;;;;;;4993265;28;20186;-80
2023/10/09 09:44:59;;;;;;;12.93;5.00;;;;;;;;;;5012812;28;20198;-79
2023/10/09 09:47:29;;;;;;;12.33;5.07;;;;;;;;;;5010896;28;20187;-80
2023/10/09 09:50:11;;;;;;;16.90;5.10;;;;;;;;;;5021018;28;20201;-79
2023/10/09 09:52:38;;;;;;;15.73;4.97;;;;;;;;;;4997828;28;20182;-80
2023/10/09 09:55:22;;;;;;;15.37;5.13;;;;;;;;;;5017073;28;20187;-80
2023/10/09 09:57:52;;;;;;;13.03;4.87;;;;;;;;;;5010636;28;20322;-78
2023/10/09 10:00:29;;;;;;;14.60;4.67;;;;;;;;;;5021737;28;20210;-79
2023/10/09 10:02:59;;;;;;;12.60;4.77;;;;;;;;;;5004299;28;20274;-79
2023/10/09 10:05:29;;;;;;;15.00;5.23;;;;;;;;;;4974382;28;21386;-82
2023/10/09 10:07:59;;;;;;;14.93;5.47;;;;;;;;;;5002657;28;20195;-78
2023/10/09 10:10:37;;;;;;;11.33;4.60;;;;;;;;;;5003257;28;20685;-78
2023/10/09 10:13:04;;;;;;;13.60;5.10;;;;;;;;;;5018702;28;20201;-79
2023/10/09 10:15:49;;;;;;;12.17;4.63;;;;;;;;;;4996897;28;20207;-79
2023/10/09 10:18:19;;;;;;;14.23;4.80;;;;;;;;;;5010827;28;20521;-79
2023/10/09 10:21:17;;;;;;;13.43;4.83;;;;;;;;;;4970176;28;20310;-79
2023/10/09 10:23:47;;;;;;;12.97;4.33;;;;;;;;;;4994929;28;20179;-79
2023/10/09 10:26:26;;;;;;;13.97;4.63;;;;;;;;;;5012371;28;20929;-79
2023/10/09 10:29:22;;;;;;;17.17;5.03;;;;;;;;;;5013113;28;20179;-78
2023/10/09 10:31:52;;;;;;;13.73;4.80;;;;;;;;;;4996638;28;20995;-79
2023/10/09 10:34:23;;;;;;;16.37;4.83;;;;;;;;;;4994241;28;20194;-79
2023/10/09 10:36:58;;;;;;;16.90;5.20;;;;;;;;;;5003263;28;20183;-79
2023/10/09 10:39:43;;;;;;;14.50;4.93;;;;;;;;;;4994763;28;20578;-79
2023/10/09 10:42:33;;;;;;;13.53;5.13;;;;;;;;;;5012450;28;20199;-79
2023/10/09 10:44:56;;;;;;;15.13;5.47;;;;;;;;;;5007874;28;20195;-79
2023/10/09 10:47:32;;;;;;;17.00;6.10;;;;;;;;;;5014866;28;20187;-78
2023/10/09 10:50:07;;;;;;;14.77;6.87;;;;;;;;;;5012588;28;20179;-79
2023/10/09 10:52:43;;;;;;;19.93;7.73;;;;;;;;;;4994773;28;20182;-79
2023/10/09 10:55:48;;;;;;;17.13;8.23;;;;;;;;;;5017423;28;20184;-78
2023/10/09 10:58:23;;;;;;;18.30;7.40;;;;;;;;;;5000191;28;20210;-77
2023/10/09 11:03:29;;;;;;;18.23;6.60;;;;;;;;;;4981552;28;20178;-79
2023/10/09 11:06:13;;;;;;;17.90;7.17;;;;;;;;;;5005411;28;20179;-80
2023/10/09 11:08:57;;;;;;;14.33;6.20;;;;;;;;;;5021803;28;20182;-82
2023/10/09 11:11:30;;;;;;;16.40;5.40;;;;;;;;;;5007336;28;20224;-79
2023/10/09 11:14:08;;;;;;;12.33;4.83;;;;;;;;;;5018721;28;20299;-79
2023/10/09 11:16:43;;;;;;;14.17;5.30;;;;;;;;;;5024126;28;20186;-78
2023/10/09 11:24:34;;;;;;;20.93;8.27;;;;;;;;;;5022766;28;20186;-80
2023/10/09 11:27:05;;;;;;;10.63;6.00;;;;;;;;;;5019468;28;20267;-77
2023/10/09 11:32:18;;;;;;;9.67;4.67;;;;;;;;;;4984454;28;20199;-77
2023/10/09 11:34:54;;;;;;;18.03;5.87;;;;;;;;;;5024160;28;20241;-77
2023/10/09 11:39:57;;;;;;;20.50;5.63;;;;;;;;;;5022346;28;20260;-77
2023/10/09 11:42:38;;;;;;;13.33;5.17;;;;;;;;;;5022315;28;20729;-78
2023/10/09 11:45:19;;;;;;;13.50;5.17;;;;;;;;;;5024284;28;20213;-78
2023/10/09 11:48:04;;;;;;;13.80;5.03;;;;;;;;;;5006762;28;20261;-77
2023/10/09 11:50:56;;;;;;;15.20;4.87;;;;;;;;;;5024224;28;20747;-78
2023/10/09 11:55:50;;;;;;;13.70;4.60;;;;;;;;;;5020733;28;20585;-80
2023/10/09 11:58:23;;;;;;;10.87;4.77;;;;;;;;;;5014413;28;20345;-76
2023/10/09 12:00:59;;;;;;;11.03;4.57;;;;;;;;;;5024677;28;20758;-77
2023/10/09 12:03:29;;;;;;;11.93;4.80;;;;;;;;;;5023416;28;20180;-78
2023/10/09 12:06:04;;;;;;;8.80;4.07;;;;;;;;;;5005040;28;20332;-78
2023/10/09 12:08:30;;;;;;;12.47;4.50;;;;;;;;;;5004337;28;20184;-77
2023/10/09 12:10:56;;;;;;;12.13;4.80;;;;;;;;;;5022871;28;20205;-77
2023/10/09 12:13:28;;;;;;;12.47;4.43;;;;;;;;;;5020514;28;20632;-78
2023/10/09 12:16:08;;;;;;;11.97;4.80;;;;;;;;;;5001059;28;20197;-78
2023/10/09 12:18:52;;;;;;;16.47;5.33;;;;;;;;;;5004610;28;20190;-77
2023/10/09 12:21:29;;;;;;;12.83;4.63;;;;;;;;;;5016879;28;20235;-78
2023/10/09 12:24:11;;;;;;;10.20;4.73;;;;;;;;;;5016857;28;20196;-78
2023/10/09 12:26:47;;;;;;;7.50;4.50;;;;;;;;;;5000207;28;20183;-79
2023/10/09 12:29:23;;;;;;;7.20;4.50;;;;;;;;;;5019448;28;20194;-78
2023/10/09 12:32:01;;;;;;;10.17;4.33;;;;;;;;;;5019446;28;20675;-78
2023/10/09 12:34:38;;;;;;;9.50;4.47;;;;;;;;;;5020849;28;20221;-79
2023/10/09 12:37:12;;;;;;;13.37;4.90;;;;;;;;;;5003149;28;20278;-79
2023/10/09 12:39:47;;;;;;;10.07;5.10;;;;;;;;;;4999453;28;20570;-77
2023/10/09 12:42:16;;;;;;;10.97;4.70;;;;;;;;;;5019789;28;20233;-78
2023/10/09 12:44:44;;;;;;;12.27;4.47;;;;;;;;;;4987000;28;20196;-78
2023/10/09 12:47:11;;;;;;;12.40;5.10;;;;;;;;;;5002438;28;20175;-79
2023/10/09 12:49:43;;;;;;;12.57;4.40;;;;;;;;;;5015432;28;20211;-76
2023/10/09 12:52:16;;;;;;;14.37;4.70;;;;;;;;;;5015093;28;20271;-79
2023/10/09 12:54:49;;;;;;;11.07;4.60;;;;;;;;;;5016502;28;20239;-78
2023/10/09 12:57:26;;;;;;;7.57;4.80;;;;;;;;;;5019286;28;20626;-78
2023/10/09 13:00:10;;;;;;;10.67;4.63;;;;;;;;;;5017722;28;20538;-78
2023/10/09 13:02:44;;;;;;;12.40;4.70;;;;;;;;;;5002284;28;20179;-78
2023/10/09 13:05:24;;;;;;;9.57;4.53;;;;;;;;;;5022067;28;20171;-76
2023/10/09 13:07:51;;;;;;;11.57;5.00;;;;;;;;;;5016957;28;20178;-79
2023/10/09 13:10:17;;;;;;;9.37;4.77;;;;;;;;;;5021895;28;20249;-77
2023/10/09 13:12:44;;;;;;;9.60;4.90;;;;;;;;;;5022054;28;20213;-77
2023/10/09 13:15:10;;;;;;;10.10;4.40;;;;;;;;;;5021462;28;20664;-78
2023/10/09 13:17:41;;;;;;;9.90;4.20;;;;;;;;;;5000662;28;20269;-78
2023/10/09 13:20:13;;;;;;;15.13;5.10;;;;;;;;;;5018093;28;20281;-79
2023/10/09 13:22:41;;;;;;;13.50;5.27;;;;;;;;;;4999438;28;20179;-78
2023/10/09 13:25:14;;;;;;;10.00;4.50;;;;;;;;;;5014270;28;20653;-77
2023/10/09 13:27:40;;;;;;;8.60;4.87;;;;;;;;;;5010044;28;20195;-77
2023/10/09 13:30:08;;;;;;;9.27;4.70;;;;;;;;;;5004845;28;20179;-85
2023/10/09 13:32:35;;;;;;;10.07;5.20;;;;;;;;;;4975851;28;20234;-85
2023/10/09 13:35:05;;;;;;;11.80;4.73;;;;;;;;;;4992050;28;20246;-85
2023/10/09 13:37:36;;;;;;;9.67;4.47;;;;;;;;;;4993906;28;20195;-84
2023/10/09 13:40:10;;;;;;;9.83;4.40;;;;;;;;;;5011923;28;20210;-85
2023/10/09 13:42:37;;;;;;;9.57;4.70;;;;;;;;;;4970619;28;20198;-85
2023/10/09 13:45:15;;;;;;;11.53;4.67;;;;;;;;;;5007724;28;20206;-84
2023/10/09 13:47:45;;;;;;;7.17;4.40;;;;;;;;;;4974961;28;20184;-84
2023/10/09 13:50:11;;;;;;;9.67;4.40;;;;;;;;;;4994651;28;20191;-84
2023/10/09 13:52:39;;;;;;;8.67;4.60;;;;;;;;;;5007598;28;20575;-84
2023/10/09 13:55:15;;;;;;;10.03;4.87;;;;;;;;;;4985300;28;20199;-84
2023/10/09 13:57:45;;;;;;;11.43;4.70;;;;;;;;;;4999904;28;20693;-83
2023/10/09 14:00:32;;;;;;;11.67;4.63;;;;;;;;;;4984684;28;20214;-83
2023/10/09 14:03:01;;;;;;;8.67;4.37;;;;;;;;;;5000051;28;20231;-84
2023/10/09 14:05:30;;;;;;;9.77;4.60;;;;;;;;;;5006449;28;20240;-83
2023/10/09 14:08:00;;;;;;;8.30;4.73;;;;;;;;;;5003267;28;20182;-83
2023/10/09 14:10:30;;;;;;;8.77;4.87;;;;;;;;;;4983645;28;20214;-83
2023/10/09 14:12:57;;;;;;;8.43;4.70;;;;;;;;;;5014015;28;20199;-83
2023/10/09 14:15:24;;;;;;;7.77;4.37;;;;;;;;;;5016412;28;20191;-83
2023/10/09 14:17:55;;;;;;;7.70;4.40;;;;;;;;;;4997827;28;20193;-83
2023/10/09 14:20:30;;;;;;;7.57;4.30;;;;;;;;;;5005564;28;20210;-84
2023/10/09 14:22:56;;;;;;;11.97;5.10;;;;;;;;;;5021479;28;20217;-84
2023/10/09 14:25:23;;;;;;;8.23;4.83;;;;;;;;;;5027100;28;20190;-84
2023/10/09 14:27:49;;;;;;;8.03;4.87;;;;;;;;;;5026877;28;20190;-83
2023/10/09 14:30:22;;;;;;;8.47;4.43;;;;;;;;;;5020960;28;20281;-84
2023/10/09 14:32:55;;;;;;;11.70;4.60;;;;;;;;;;5006899;28;20584;-83
2023/10/09 14:35:26;;;;;;;8.13;4.80;;;;;;;;;;5021815;28;20301;-83
2023/10/09 14:37:56;;;;;;;9.63;4.37;;;;;;;;;;5020323;28;20187;-83
2023/10/09 14:40:29;;;;;;;7.07;4.60;;;;;;;;;;5013265;28;20214;-83
2023/10/09 14:42:58;;;;;;;9.30;5.10;;;;;;;;;;5014062;28;20206;-83
2023/10/09 14:45:25;;;;;;;8.37;4.30;;;;;;;;;;5019563;28;20181;-83
2023/10/09 14:47:53;;;;;;;11.43;5.40;;;;;;;;;;5007942;28;20214;-83
2023/10/09 14:50:22;;;;;;;10.17;4.87;;;;;;;;;;4988304;28;20194;-84
2023/10/09 14:52:50;;;;;;;10.17;4.60;;;;;;;;;;5004238;28;20183;-83
2023/10/09 14:55:20;;;;;;;8.67;4.23;;;;;;;;;;4999352;28;20183;-83
2023/10/09 14:57:53;;;;;;;8.40;4.10;;;;;;;;;;5000644;28;20183;-83
2023/10/09 15:00:22;;;;;;;10.50;4.73;;;;;;;;;;4984169;28;20202;-83
2023/10/09 15:02:52;;;;;;;8.13;4.43;;;;;;;;;;4999265;28;20670;-83
2023/10/09 15:05:18;;;;;;;9.03;4.70;;;;;;;;;;5016597;28;20190;-84
2023/10/09 15:07:45;;;;;;;14.30;4.83;;;;;;;;;;5001801;28;20195;-83
2023/10/09 15:10:15;;;;;;;9.07;4.50;;;;;;;;;;5001879;28;20196;-83
2023/10/09 15:12:42;;;;;;;8.17;4.40;;;;;;;;;;5021717;28;20191;-83
2023/10/09 15:15:16;;;;;;;10.87;4.77;;;;;;;;;;5018988;28;20191;-84
2023/10/09 15:17:44;;;;;;;8.53;5.03;;;;;;;;;;4958827;28;20643;-83
2023/10/09 15:20:13;;;;;;;10.10;4.57;;;;;;;;;;5014202;28;20566;-83
2023/10/09 15:22:43;;;;;;;8.50;4.60;;;;;;;;;;4980076;28;20184;-83
2023/10/09 15:25:14;;;;;;;9.80;4.53;;;;;;;;;;5012166;28;20202;-83
2023/10/09 15:27:41;;;;;;;8.33;4.87;;;;;;;;;;5014688;28;20658;-81
2023/10/09 15:30:13;;;;;;;7.83;4.40;;;;;;;;;;5023023;28;20677;-82
2023/10/09 15:32:41;;;;;;;11.67;4.93;;;;;;;;;;5003590;28;20232;-81
2023/10/09 15:35:09;;;;;;;9.40;4.60;;;;;;;;;;5018390;28;20251;-82
2023/10/09 15:37:40;;;;;;;11.33;4.93;;;;;;;;;;4999774;28;20566;-82
2023/10/09 15:40:13;;;;;;;11.20;4.60;;;;;;;;;;5018623;28;20209;-82
2023/10/09 15:42:49;;;;;;;13.83;5.13;;;;;;;;;;5019525;28;20192;-82
2023/10/09 15:45:21;;;;;;;9.13;4.90;;;;;;;;;;5001313;28;20192;-81
2023/10/09 15:47:53;;;;;;;9.13;5.00;;;;;;;;;;5001382;28;20189;-81
2023/10/09 15:50:22;;;;;;;8.77;5.27;;;;;;;;;;5004570;28;20250;-81
2023/10/09 15:52:51;;;;;;;10.43;4.93;;;;;;;;;;5005371;28;20700;-78
2023/10/09 15:55:20;;;;;;;11.83;5.47;;;;;;;;;;4997446;28;20193;-78
2023/10/09 15:57:52;;;;;;;9.73;4.77;;;;;;;;;;5023663;28;20185;-81
2023/10/09 16:00:18;;;;;;;10.07;5.23;;;;;;;;;;5026771;28;20328;-81
2023/10/09 16:02:46;;;;;;;9.03;5.07;;;;;;;;;;4992778;28;20696;-81
2023/10/09 16:05:13;;;;;;;9.83;4.90;;;;;;;;;;4993378;28;21313;-81
2023/10/09 16:07:40;;;;;;;7.27;4.47;;;;;;;;;;5024770;28;20208;-80
2023/10/09 16:10:08;;;;;;;8.77;5.10;;;;;;;;;;4991073;28;20209;-81
2023/10/09 16:12:42;;;;;;;10.20;5.53;;;;;;;;;;4997805;28;20204;-81
2023/10/09 16:15:09;;;;;;;9.13;5.30;;;;;;;;;;5004700;28;20183;-81
2023/10/09 16:17:37;;;;;;;10.93;5.70;;;;;;;;;;5020584;28;20188;-81
2023/10/09 16:20:13;;;;;;;10.27;5.60;;;;;;;;;;5002778;28;20196;-81
2023/10/09 16:22:45;;;;;;;8.17;5.33;;;;;;;;;;5004136;28;20189;-80
2023/10/09 16:25:13;;;;;;;9.17;5.30;;;;;;;;;;5005130;28;20217;-81
2023/10/09 16:27:46;;;;;;;7.33;4.97;;;;;;;;;;5007283;28;20199;-82
2023/10/09 16:30:18;;;;;;;8.30;5.00;;;;;;;;;;5024032;28;20190;-81
2023/10/09 16:32:46;;;;;;;11.47;5.30;;;;;;;;;;5023770;28;20206;-81
2023/10/09 16:35:13;;;;;;;9.37;5.20;;;;;;;;;;5008366;28;20810;-82
2023/10/09 16:37:40;;;;;;;8.87;4.70;;;;;;;;;;4997423;28;20190;-83
2023/10/09 16:40:14;;;;;;;9.17;5.70;;;;;;;;;;5007578;28;20310;-82
2023/10/09 16:42:42;;;;;;;9.90;5.80;;;;;;;;;;4994595;28;20201;-82
2023/10/09 16:45:12;;;;;;;9.00;4.53;;;;;;;;;;5013238;28;20194;-81
2023/10/09 16:47:41;;;;;;;13.20;4.90;;;;;;;;;;5009270;28;22170;-82
2023/10/09 16:50:13;;;;;;;11.13;5.43;;;;;;;;;;5009655;28;20202;-81
2023/10/09 16:52:40;;;;;;;9.47;4.97;;;;;;;;;;5009636;28;20595;-80